sensor_id;sensor_type;location;lat;lon;timestamp;P1;durP1;ratioP1;P2;durP2;ratioP2
71496;SDS011;59317;53.218;5.730;2022-09-09T00:01:05;15.40;;;8.77;;
71496;SDS011;59317;53.218;5.730;2022-09-09T00:03:43;16.57;;;9.33;;
71496;SDS011;59317;53.218;5.730;2022-09-09T00:11:15;15.57;;;9.00;;
71496;SDS011;59317;53.218;5.730;2022-09-09T00:13:48;15.95;;;9.45;;
71496;SDS011;59317;53.218;5.730;2022-09-09T00:16:22;17.27;;;9.65;;
71496;SDS011;59317;53.218;5.730;2022-09-09T00:19:06;17.75;;;9.82;;
71496;SDS011;59317;53.218;5.730;2022-09-09T00:21:34;15.38;;;9.93;;
71496;SDS011;59317;53.218;5.730;2022-09-09T00:26:51;18.67;;;9.60;;
71496;SDS011;59317;53.218;5.730;2022-09-09T00:29:28;19.23;;;10.00;;
71496;SDS011;59317;53.218;5.730;2022-09-09T00:32:07;19.90;;;9.70;;
71496;SDS011;59317;53.218;5.730;2022-09-09T00:34:34;18.52;;;9.50;;
71496;SDS011;59317;53.218;5.730;2022-09-09T00:37:05;17.53;;;9.80;;
71496;SDS011;59317;53.218;5.730;2022-09-09T00:40:27;16.33;;;9.60;;
71496;SDS011;59317;53.218;5.730;2022-09-09T00:43:08;15.07;;;9.48;;
71496;SDS011;59317;53.218;5.730;2022-09-09T00:48:14;22.05;;;10.35;;
71496;SDS011;59317;53.218;5.730;2022-09-09T00:50:44;18.43;;;9.40;;
71496;SDS011;59317;53.218;5.730;2022-09-09T00:58:16;19.33;;;10.00;;
71496;SDS011;59317;53.218;5.730;2022-09-09T01:00:50;17.98;;;9.95;;
71496;SDS011;59317;53.218;5.730;2022-09-09T01:08:59;17.93;;;9.97;;
71496;SDS011;59317;53.218;5.730;2022-09-09T01:11:36;16.08;;;9.82;;
71496;SDS011;59317;53.218;5.730;2022-09-09T01:16:50;19.25;;;10.20;;
71496;SDS011;59317;53.218;5.730;2022-09-09T01:19:20;18.70;;;9.82;;
71496;SDS011;59317;53.218;5.730;2022-09-09T01:21:54;17.52;;;9.93;;
71496;SDS011;59317;53.218;5.730;2022-09-09T01:24:45;20.88;;;10.98;;
71496;SDS011;59317;53.218;5.730;2022-09-09T01:27:13;18.10;;;9.98;;
71496;SDS011;59317;53.218;5.730;2022-09-09T01:29:41;19.60;;;10.13;;
71496;SDS011;59317;53.218;5.730;2022-09-09T01:34:51;20.10;;;10.40;;
71496;SDS011;59317;53.218;5.730;2022-09-09T01:37:17;18.73;;;9.73;;
71496;SDS011;59317;53.218;5.730;2022-09-09T01:39:44;20.17;;;10.57;;
71496;SDS011;59317;53.218;5.730;2022-09-09T01:42:11;18.42;;;10.43;;
71496;SDS011;59317;53.218;5.730;2022-09-09T01:44:39;17.63;;;10.10;;
71496;SDS011;59317;53.218;5.730;2022-09-09T01:47:05;18.05;;;10.35;;
71496;SDS011;59317;53.218;5.730;2022-09-09T01:49:32;19.85;;;10.50;;
71496;SDS011;59317;53.218;5.730;2022-09-09T01:51:58;19.57;;;10.33;;
71496;SDS011;59317;53.218;5.730;2022-09-09T01:54:26;19.73;;;10.38;;
71496;SDS011;59317;53.218;5.730;2022-09-09T02:02:19;20.95;;;10.77;;
71496;SDS011;59317;53.218;5.730;2022-09-09T02:04:51;21.35;;;10.98;;
71496;SDS011;59317;53.218;5.730;2022-09-09T02:07:26;19.33;;;9.87;;
71496;SDS011;59317;53.218;5.730;2022-09-09T02:09:58;21.27;;;10.63;;
71496;SDS011;59317;53.218;5.730;2022-09-09T02:12:26;20.63;;;11.20;;
71496;SDS011;59317;53.218;5.730;2022-09-09T02:14:58;21.73;;;11.60;;
71496;SDS011;59317;53.218;5.730;2022-09-09T02:17:27;23.20;;;11.27;;
71496;SDS011;59317;53.218;5.730;2022-09-09T02:19:59;21.65;;;10.73;;
71496;SDS011;59317;53.218;5.730;2022-09-09T02:22:27;22.15;;;11.30;;
71496;SDS011;59317;53.218;5.730;2022-09-09T02:24:56;20.63;;;10.80;;
71496;SDS011;59317;53.218;5.730;2022-09-09T02:27:24;21.13;;;11.10;;
71496;SDS011;59317;53.218;5.730;2022-09-09T02:29:51;21.45;;;10.70;;
71496;SDS011;59317;53.218;5.730;2022-09-09T02:32:27;20.52;;;10.77;;
71496;SDS011;59317;53.218;5.730;2022-09-09T02:35:15;23.30;;;11.30;;
71496;SDS011;59317;53.218;5.730;2022-09-09T02:37:46;22.33;;;11.23;;
71496;SDS011;59317;53.218;5.730;2022-09-09T02:40:12;19.05;;;11.43;;
71496;SDS011;59317;53.218;5.730;2022-09-09T02:42:41;23.17;;;11.38;;
71496;SDS011;59317;53.218;5.730;2022-09-09T02:45:08;24.42;;;11.77;;
71496;SDS011;59317;53.218;5.730;2022-09-09T02:47:35;22.80;;;11.57;;
71496;SDS011;59317;53.218;5.730;2022-09-09T02:50:10;22.60;;;11.33;;
71496;SDS011;59317;53.218;5.730;2022-09-09T02:55:06;22.48;;;11.70;;
71496;SDS011;59317;53.218;5.730;2022-09-09T02:57:33;21.97;;;11.50;;
71496;SDS011;59317;53.218;5.730;2022-09-09T03:00:00;21.30;;;11.65;;
71496;SDS011;59317;53.218;5.730;2022-09-09T03:02:29;22.38;;;11.57;;
71496;SDS011;59317;53.218;5.730;2022-09-09T03:05:08;23.67;;;11.43;;
71496;SDS011;59317;53.218;5.730;2022-09-09T03:07:34;24.70;;;11.50;;
71496;SDS011;59317;53.218;5.730;2022-09-09T03:10:00;24.75;;;12.10;;
71496;SDS011;59317;53.218;5.730;2022-09-09T03:12:26;27.05;;;12.10;;
71496;SDS011;59317;53.218;5.730;2022-09-09T03:14:52;28.65;;;12.60;;
71496;SDS011;59317;53.218;5.730;2022-09-09T03:17:18;24.80;;;12.18;;
71496;SDS011;59317;53.218;5.730;2022-09-09T03:19:44;20.27;;;11.52;;
71496;SDS011;59317;53.218;5.730;2022-09-09T03:22:10;24.42;;;12.38;;
71496;SDS011;59317;53.218;5.730;2022-09-09T03:24:36;25.42;;;12.88;;
71496;SDS011;59317;53.218;5.730;2022-09-09T03:27:02;25.00;;;12.60;;
71496;SDS011;59317;53.218;5.730;2022-09-09T03:31:59;23.25;;;11.95;;
71496;SDS011;59317;53.218;5.730;2022-09-09T03:37:01;27.77;;;14.07;;
71496;SDS011;59317;53.218;5.730;2022-09-09T03:39:27;27.48;;;13.23;;
71496;SDS011;59317;53.218;5.730;2022-09-09T03:41:54;25.37;;;12.77;;
71496;SDS011;59317;53.218;5.730;2022-09-09T03:44:29;26.98;;;12.60;;
71496;SDS011;59317;53.218;5.730;2022-09-09T03:46:55;23.63;;;11.60;;
71496;SDS011;59317;53.218;5.730;2022-09-09T03:49:21;23.13;;;11.85;;
71496;SDS011;59317;53.218;5.730;2022-09-09T03:59:49;20.88;;;11.10;;
71496;SDS011;59317;53.218;5.730;2022-09-09T04:02:15;21.92;;;10.98;;
71496;SDS011;59317;53.218;5.730;2022-09-09T04:04:41;20.65;;;10.68;;
71496;SDS011;59317;53.218;5.730;2022-09-09T04:07:07;23.70;;;10.43;;
71496;SDS011;59317;53.218;5.730;2022-09-09T04:09:33;20.08;;;10.07;;
71496;SDS011;59317;53.218;5.730;2022-09-09T04:12:01;20.33;;;11.27;;
71496;SDS011;59317;53.218;5.730;2022-09-09T04:14:27;21.20;;;9.90;;
71496;SDS011;59317;53.218;5.730;2022-09-09T04:16:53;18.95;;;9.63;;
71496;SDS011;59317;53.218;5.730;2022-09-09T04:27:04;17.85;;;9.85;;
71496;SDS011;59317;53.218;5.730;2022-09-09T04:29:30;19.80;;;9.77;;
71496;SDS011;59317;53.218;5.730;2022-09-09T04:31:56;18.50;;;9.80;;
71496;SDS011;59317;53.218;5.730;2022-09-09T04:34:24;17.92;;;9.02;;
71496;SDS011;59317;53.218;5.730;2022-09-09T04:36:50;19.48;;;8.80;;
71496;SDS011;59317;53.218;5.730;2022-09-09T04:39:17;18.13;;;9.50;;
71496;SDS011;59317;53.218;5.730;2022-09-09T04:41:44;18.52;;;9.13;;
71496;SDS011;59317;53.218;5.730;2022-09-09T04:44:10;18.65;;;8.98;;
71496;SDS011;59317;53.218;5.730;2022-09-09T04:49:27;17.50;;;9.13;;
71496;SDS011;59317;53.218;5.730;2022-09-09T04:51:56;16.40;;;8.83;;
71496;SDS011;59317;53.218;5.730;2022-09-09T04:54:22;16.33;;;7.85;;
71496;SDS011;59317;53.218;5.730;2022-09-09T04:56:53;17.50;;;7.55;;
71496;SDS011;59317;53.218;5.730;2022-09-09T04:59:25;16.58;;;7.32;;
71496;SDS011;59317;53.218;5.730;2022-09-09T05:01:51;18.08;;;7.32;;
71496;SDS011;59317;53.218;5.730;2022-09-09T05:04:19;15.45;;;7.03;;
71496;SDS011;59317;53.218;5.730;2022-09-09T05:06:45;18.50;;;7.55;;
71496;SDS011;59317;53.218;5.730;2022-09-09T05:09:11;17.95;;;7.63;;
71496;SDS011;59317;53.218;5.730;2022-09-09T05:11:37;20.17;;;7.78;;
71496;SDS011;59317;53.218;5.730;2022-09-09T05:14:03;17.20;;;7.82;;
71496;SDS011;59317;53.218;5.730;2022-09-09T05:16:29;15.67;;;7.07;;
71496;SDS011;59317;53.218;5.730;2022-09-09T05:18:55;15.65;;;6.82;;
71496;SDS011;59317;53.218;5.730;2022-09-09T05:21:22;14.43;;;7.25;;
71496;SDS011;59317;53.218;5.730;2022-09-09T05:23:50;16.23;;;6.80;;
71496;SDS011;59317;53.218;5.730;2022-09-09T05:26:17;15.83;;;6.73;;
71496;SDS011;59317;53.218;5.730;2022-09-09T05:28:43;13.70;;;6.90;;
71496;SDS011;59317;53.218;5.730;2022-09-09T05:31:10;16.85;;;7.13;;
71496;SDS011;59317;53.218;5.730;2022-09-09T05:33:37;15.27;;;6.63;;
71496;SDS011;59317;53.218;5.730;2022-09-09T05:36:06;16.17;;;6.83;;
71496;SDS011;59317;53.218;5.730;2022-09-09T05:38:33;16.75;;;7.32;;
71496;SDS011;59317;53.218;5.730;2022-09-09T05:41:00;14.23;;;6.75;;
71496;SDS011;59317;53.218;5.730;2022-09-09T05:43:26;16.13;;;7.90;;
71496;SDS011;59317;53.218;5.730;2022-09-09T05:48:34;18.55;;;8.27;;
71496;SDS011;59317;53.218;5.730;2022-09-09T05:51:00;18.75;;;8.35;;
71496;SDS011;59317;53.218;5.730;2022-09-09T05:53:27;16.57;;;8.37;;
71496;SDS011;59317;53.218;5.730;2022-09-09T05:56:03;17.98;;;8.80;;
71496;SDS011;59317;53.218;5.730;2022-09-09T05:58:33;17.77;;;7.68;;
71496;SDS011;59317;53.218;5.730;2022-09-09T06:01:06;16.15;;;7.65;;
71496;SDS011;59317;53.218;5.730;2022-09-09T06:03:36;18.67;;;8.43;;
71496;SDS011;59317;53.218;5.730;2022-09-09T06:06:03;18.08;;;8.15;;
71496;SDS011;59317;53.218;5.730;2022-09-09T06:08:31;16.63;;;7.65;;
71496;SDS011;59317;53.218;5.730;2022-09-09T06:11:00;19.33;;;9.32;;
71496;SDS011;59317;53.218;5.730;2022-09-09T06:13:27;19.75;;;8.77;;
71496;SDS011;59317;53.218;5.730;2022-09-09T06:15:54;18.35;;;8.88;;
71496;SDS011;59317;53.218;5.730;2022-09-09T06:18:20;20.67;;;9.27;;
71496;SDS011;59317;53.218;5.730;2022-09-09T06:21:03;16.02;;;8.52;;
71496;SDS011;59317;53.218;5.730;2022-09-09T06:23:30;19.58;;;10.45;;
71496;SDS011;59317;53.218;5.730;2022-09-09T06:26:12;19.40;;;10.23;;
71496;SDS011;59317;53.218;5.730;2022-09-09T06:28:39;17.40;;;9.10;;
71496;SDS011;59317;53.218;5.730;2022-09-09T06:31:08;16.03;;;8.87;;
71496;SDS011;59317;53.218;5.730;2022-09-09T06:33:34;16.85;;;8.95;;
71496;SDS011;59317;53.218;5.730;2022-09-09T06:36:01;15.35;;;8.50;;
71496;SDS011;59317;53.218;5.730;2022-09-09T06:38:28;16.80;;;8.90;;
71496;SDS011;59317;53.218;5.730;2022-09-09T06:40:55;18.03;;;8.90;;
71496;SDS011;59317;53.218;5.730;2022-09-09T06:43:21;15.90;;;8.15;;
71496;SDS011;59317;53.218;5.730;2022-09-09T06:45:58;17.60;;;8.43;;
71496;SDS011;59317;53.218;5.730;2022-09-09T06:48:25;16.45;;;8.02;;
71496;SDS011;59317;53.218;5.730;2022-09-09T06:51:15;14.80;;;8.30;;
71496;SDS011;59317;53.218;5.730;2022-09-09T06:53:40;15.65;;;8.13;;
71496;SDS011;59317;53.218;5.730;2022-09-09T06:58:42;11.80;;;5.70;;
71496;SDS011;59317;53.218;5.730;2022-09-09T07:01:09;13.57;;;7.65;;
71496;SDS011;59317;53.218;5.730;2022-09-09T07:03:37;14.63;;;6.93;;
71496;SDS011;59317;53.218;5.730;2022-09-09T07:06:04;13.10;;;7.30;;
71496;SDS011;59317;53.218;5.730;2022-09-09T07:08:30;13.68;;;6.93;;
71496;SDS011;59317;53.218;5.730;2022-09-09T07:11:01;15.02;;;7.40;;
71496;SDS011;59317;53.218;5.730;2022-09-09T07:13:31;14.20;;;7.68;;
71496;SDS011;59317;53.218;5.730;2022-09-09T07:16:04;13.60;;;7.32;;
71496;SDS011;59317;53.218;5.730;2022-09-09T07:18:31;10.63;;;5.50;;
71496;SDS011;59317;53.218;5.730;2022-09-09T07:20:58;15.07;;;7.30;;
71496;SDS011;59317;53.218;5.730;2022-09-09T07:23:24;12.43;;;6.47;;
71496;SDS011;59317;53.218;5.730;2022-09-09T07:25:51;11.52;;;6.03;;
71496;SDS011;59317;53.218;5.730;2022-09-09T07:28:18;11.13;;;6.28;;
71496;SDS011;59317;53.218;5.730;2022-09-09T07:30:45;12.88;;;6.50;;
71496;SDS011;59317;53.218;5.730;2022-09-09T07:33:18;10.95;;;6.15;;
71496;SDS011;59317;53.218;5.730;2022-09-09T07:35:45;10.30;;;5.97;;
71496;SDS011;59317;53.218;5.730;2022-09-09T07:38:11;11.57;;;5.28;;
71496;SDS011;59317;53.218;5.730;2022-09-09T07:40:37;10.98;;;5.13;;
71496;SDS011;59317;53.218;5.730;2022-09-09T07:43:04;10.47;;;5.13;;
71496;SDS011;59317;53.218;5.730;2022-09-09T07:45:30;9.65;;;5.18;;
71496;SDS011;59317;53.218;5.730;2022-09-09T07:47:57;11.27;;;5.67;;
71496;SDS011;59317;53.218;5.730;2022-09-09T07:50:24;12.40;;;5.10;;
71496;SDS011;59317;53.218;5.730;2022-09-09T07:52:51;10.15;;;4.70;;
71496;SDS011;59317;53.218;5.730;2022-09-09T07:55:18;12.13;;;5.30;;
71496;SDS011;59317;53.218;5.730;2022-09-09T07:57:44;9.20;;;5.17;;
71496;SDS011;59317;53.218;5.730;2022-09-09T08:00:11;9.63;;;4.93;;
71496;SDS011;59317;53.218;5.730;2022-09-09T08:02:39;10.18;;;4.90;;
71496;SDS011;59317;53.218;5.730;2022-09-09T08:05:06;11.63;;;4.82;;
71496;SDS011;59317;53.218;5.730;2022-09-09T08:07:32;9.73;;;4.78;;
71496;SDS011;59317;53.218;5.730;2022-09-09T08:09:59;10.57;;;4.90;;
71496;SDS011;59317;53.218;5.730;2022-09-09T08:12:25;8.57;;;4.03;;
71496;SDS011;59317;53.218;5.730;2022-09-09T08:14:52;8.93;;;4.45;;
71496;SDS011;59317;53.218;5.730;2022-09-09T08:17:19;9.98;;;5.20;;
71496;SDS011;59317;53.218;5.730;2022-09-09T08:19:45;9.23;;;4.40;;
71496;SDS011;59317;53.218;5.730;2022-09-09T08:22:11;8.25;;;4.20;;
71496;SDS011;59317;53.218;5.730;2022-09-09T08:24:37;9.43;;;4.47;;
71496;SDS011;59317;53.218;5.730;2022-09-09T08:27:06;9.40;;;4.97;;
71496;SDS011;59317;53.218;5.730;2022-09-09T08:29:32;8.40;;;3.67;;
71496;SDS011;59317;53.218;5.730;2022-09-09T08:31:58;11.13;;;4.75;;
71496;SDS011;59317;53.218;5.730;2022-09-09T08:34:25;10.13;;;4.80;;
71496;SDS011;59317;53.218;5.730;2022-09-09T08:36:55;10.38;;;4.45;;
71496;SDS011;59317;53.218;5.730;2022-09-09T08:39:21;8.80;;;4.15;;
71496;SDS011;59317;53.218;5.730;2022-09-09T08:41:57;10.30;;;4.85;;
71496;SDS011;59317;53.218;5.730;2022-09-09T08:52:44;8.77;;;4.05;;
71496;SDS011;59317;53.218;5.730;2022-09-09T08:55:27;11.07;;;4.40;;
71496;SDS011;59317;53.218;5.730;2022-09-09T08:57:54;8.43;;;4.03;;
71496;SDS011;59317;53.218;5.730;2022-09-09T09:00:23;9.20;;;4.30;;
71496;SDS011;59317;53.218;5.730;2022-09-09T09:03:02;9.32;;;4.55;;
71496;SDS011;59317;53.218;5.730;2022-09-09T09:05:42;10.23;;;4.63;;
71496;SDS011;59317;53.218;5.730;2022-09-09T09:08:17;12.43;;;4.40;;
71496;SDS011;59317;53.218;5.730;2022-09-09T09:10:47;11.57;;;4.47;;
71496;SDS011;59317;53.218;5.730;2022-09-09T09:13:18;8.75;;;3.67;;
71496;SDS011;59317;53.218;5.730;2022-09-09T09:15:48;10.30;;;4.60;;
71496;SDS011;59317;53.218;5.730;2022-09-09T09:18:15;9.00;;;4.35;;
71496;SDS011;59317;53.218;5.730;2022-09-09T09:23:42;10.20;;;4.60;;
71496;SDS011;59317;53.218;5.730;2022-09-09T09:26:11;12.35;;;4.80;;
71496;SDS011;59317;53.218;5.730;2022-09-09T09:28:37;10.20;;;5.00;;
71496;SDS011;59317;53.218;5.730;2022-09-09T09:31:05;9.83;;;4.47;;
71496;SDS011;59317;53.218;5.730;2022-09-09T09:36:07;6.82;;;3.40;;
71496;SDS011;59317;53.218;5.730;2022-09-09T09:38:34;9.63;;;3.40;;
71496;SDS011;59317;53.218;5.730;2022-09-09T09:41:03;10.00;;;3.40;;
71496;SDS011;59317;53.218;5.730;2022-09-09T09:43:30;8.25;;;3.13;;
71496;SDS011;59317;53.218;5.730;2022-09-09T09:45:56;9.88;;;3.03;;
71496;SDS011;59317;53.218;5.730;2022-09-09T09:48:23;8.98;;;3.58;;
71496;SDS011;59317;53.218;5.730;2022-09-09T09:50:59;8.33;;;2.80;;
71496;SDS011;59317;53.218;5.730;2022-09-09T09:53:31;6.47;;;2.65;;
71496;SDS011;59317;53.218;5.730;2022-09-09T09:56:02;9.75;;;2.70;;
71496;SDS011;59317;53.218;5.730;2022-09-09T09:58:31;8.53;;;2.83;;
71496;SDS011;59317;53.218;5.730;2022-09-09T10:00:59;7.97;;;2.40;;
71496;SDS011;59317;53.218;5.730;2022-09-09T10:03:27;9.98;;;2.67;;
71496;SDS011;59317;53.218;5.730;2022-09-09T10:05:54;7.45;;;2.20;;
71496;SDS011;59317;53.218;5.730;2022-09-09T10:08:24;7.30;;;2.40;;
71496;SDS011;59317;53.218;5.730;2022-09-09T10:13:58;6.55;;;1.92;;
71496;SDS011;59317;53.218;5.730;2022-09-09T10:19:01;7.82;;;2.10;;
71496;SDS011;59317;53.218;5.730;2022-09-09T10:21:38;5.75;;;1.60;;
71496;SDS011;59317;53.218;5.730;2022-09-09T10:26:52;8.32;;;2.00;;
71496;SDS011;59317;53.218;5.730;2022-09-09T10:29:38;9.23;;;1.90;;
71496;SDS011;59317;53.218;5.730;2022-09-09T10:37:13;6.65;;;1.75;;
71496;SDS011;59317;53.218;5.730;2022-09-09T10:39:42;7.00;;;2.00;;
71496;SDS011;59317;53.218;5.730;2022-09-09T10:42:09;7.95;;;2.00;;
71496;SDS011;59317;53.218;5.730;2022-09-09T10:44:41;8.50;;;2.00;;
71496;SDS011;59317;53.218;5.730;2022-09-09T10:52:26;10.07;;;2.22;;
71496;SDS011;59317;53.218;5.730;2022-09-09T10:55:11;6.77;;;1.43;;
71496;SDS011;59317;53.218;5.730;2022-09-09T10:57:40;7.00;;;1.58;;
71496;SDS011;59317;53.218;5.730;2022-09-09T11:00:18;6.95;;;1.40;;
71496;SDS011;59317;53.218;5.730;2022-09-09T11:02:45;6.95;;;1.60;;
71496;SDS011;59317;53.218;5.730;2022-09-09T11:07:41;7.47;;;1.60;;
71496;SDS011;59317;53.218;5.730;2022-09-09T11:10:18;7.65;;;1.70;;
71496;SDS011;59317;53.218;5.730;2022-09-09T11:12:49;7.13;;;1.60;;
71496;SDS011;59317;53.218;5.730;2022-09-09T11:15:19;8.27;;;1.43;;
71496;SDS011;59317;53.218;5.730;2022-09-09T11:17:50;5.88;;;1.35;;
71496;SDS011;59317;53.218;5.730;2022-09-09T11:20:19;7.93;;;1.38;;
71496;SDS011;59317;53.218;5.730;2022-09-09T11:22:49;6.37;;;1.40;;
71496;SDS011;59317;53.218;5.730;2022-09-09T11:25:33;9.10;;;1.90;;
71496;SDS011;59317;53.218;5.730;2022-09-09T11:31:01;6.75;;;1.42;;
71496;SDS011;59317;53.218;5.730;2022-09-09T11:33:36;7.22;;;1.40;;
71496;SDS011;59317;53.218;5.730;2022-09-09T11:36:24;5.00;;;1.20;;
71496;SDS011;59317;53.218;5.730;2022-09-09T11:38:57;6.10;;;1.40;;
71496;SDS011;59317;53.218;5.730;2022-09-09T11:41:32;6.60;;;1.23;;
71496;SDS011;59317;53.218;5.730;2022-09-09T11:43:59;7.60;;;1.38;;
71496;SDS011;59317;53.218;5.730;2022-09-09T11:46:33;6.53;;;1.20;;
71496;SDS011;59317;53.218;5.730;2022-09-09T11:49:01;6.97;;;1.55;;
71496;SDS011;59317;53.218;5.730;2022-09-09T11:51:28;8.35;;;1.52;;
71496;SDS011;59317;53.218;5.730;2022-09-09T11:53:59;7.20;;;1.77;;
71496;SDS011;59317;53.218;5.730;2022-09-09T11:56:28;5.38;;;1.38;;
71496;SDS011;59317;53.218;5.730;2022-09-09T11:59:05;6.17;;;1.10;;
71496;SDS011;59317;53.218;5.730;2022-09-09T12:01:43;6.25;;;1.27;;
71496;SDS011;59317;53.218;5.730;2022-09-09T12:06:46;8.00;;;1.55;;
71496;SDS011;59317;53.218;5.730;2022-09-09T12:12:05;7.03;;;1.50;;
71496;SDS011;59317;53.218;5.730;2022-09-09T12:19:42;7.78;;;1.92;;
71496;SDS011;59317;53.218;5.730;2022-09-09T12:22:16;7.80;;;1.65;;
71496;SDS011;59317;53.218;5.730;2022-09-09T12:29:49;8.52;;;1.90;;
71496;SDS011;59317;53.218;5.730;2022-09-09T12:32:24;9.10;;;2.00;;
71496;SDS011;59317;53.218;5.730;2022-09-09T12:34:55;8.20;;;1.80;;
71496;SDS011;59317;53.218;5.730;2022-09-09T12:39:56;8.20;;;1.80;;
71496;SDS011;59317;53.218;5.730;2022-09-09T12:42:23;8.10;;;1.80;;
71496;SDS011;59317;53.218;5.730;2022-09-09T12:44:52;9.32;;;2.10;;
71496;SDS011;59317;53.218;5.730;2022-09-09T12:47:19;7.53;;;1.30;;
71496;SDS011;59317;53.218;5.730;2022-09-09T12:49:47;7.63;;;1.88;;
71496;SDS011;59317;53.218;5.730;2022-09-09T12:52:17;8.63;;;2.00;;
71496;SDS011;59317;53.218;5.730;2022-09-09T12:54:45;8.07;;;1.80;;
71496;SDS011;59317;53.218;5.730;2022-09-09T12:57:12;7.82;;;2.00;;
71496;SDS011;59317;53.218;5.730;2022-09-09T12:59:40;10.02;;;1.73;;
71496;SDS011;59317;53.218;5.730;2022-09-09T13:04:45;6.50;;;1.40;;
71496;SDS011;59317;53.218;5.730;2022-09-09T13:07:12;5.65;;;1.15;;
71496;SDS011;59317;53.218;5.730;2022-09-09T13:09:38;8.73;;;1.63;;
71496;SDS011;59317;53.218;5.730;2022-09-09T13:12:04;5.53;;;1.25;;
71496;SDS011;59317;53.218;5.730;2022-09-09T13:14:33;6.45;;;1.70;;
71496;SDS011;59317;53.218;5.730;2022-09-09T13:17:02;7.07;;;1.60;;
71496;SDS011;59317;53.218;5.730;2022-09-09T13:19:38;8.30;;;1.70;;
71496;SDS011;59317;53.218;5.730;2022-09-09T13:22:14;6.50;;;1.63;;
71496;SDS011;59317;53.218;5.730;2022-09-09T13:24:41;6.22;;;1.20;;
71496;SDS011;59317;53.218;5.730;2022-09-09T13:27:41;6.65;;;1.60;;
71496;SDS011;59317;53.218;5.730;2022-09-09T13:30:19;6.53;;;1.50;;
71496;SDS011;59317;53.218;5.730;2022-09-09T13:32:47;6.95;;;1.38;;
71496;SDS011;59317;53.218;5.730;2022-09-09T13:35:23;6.72;;;1.27;;
71496;SDS011;59317;53.218;5.730;2022-09-09T13:37:49;5.27;;;1.17;;
71496;SDS011;59317;53.218;5.730;2022-09-09T13:40:19;6.97;;;1.30;;
71496;SDS011;59317;53.218;5.730;2022-09-09T13:42:46;3.85;;;0.95;;
71496;SDS011;59317;53.218;5.730;2022-09-09T13:45:19;5.10;;;1.43;;
71496;SDS011;59317;53.218;5.730;2022-09-09T13:47:46;6.03;;;1.30;;
71496;SDS011;59317;53.218;5.730;2022-09-09T13:50:27;8.27;;;1.70;;
71496;SDS011;59317;53.218;5.730;2022-09-09T13:52:54;3.10;;;0.93;;
71496;SDS011;59317;53.218;5.730;2022-09-09T13:55:21;5.85;;;1.10;;
71496;SDS011;59317;53.218;5.730;2022-09-09T13:57:51;4.05;;;1.08;;
71496;SDS011;59317;53.218;5.730;2022-09-09T14:00:17;3.83;;;1.03;;
71496;SDS011;59317;53.218;5.730;2022-09-09T14:02:44;6.60;;;1.25;;
71496;SDS011;59317;53.218;5.730;2022-09-09T14:05:10;4.85;;;1.65;;
71496;SDS011;59317;53.218;5.730;2022-09-09T14:07:36;6.45;;;2.10;;
71496;SDS011;59317;53.218;5.730;2022-09-09T14:10:03;4.95;;;1.70;;
71496;SDS011;59317;53.218;5.730;2022-09-09T14:12:29;6.55;;;1.73;;
71496;SDS011;59317;53.218;5.730;2022-09-09T14:14:55;7.00;;;2.00;;
71496;SDS011;59317;53.218;5.730;2022-09-09T14:17:21;6.45;;;1.35;;
71496;SDS011;59317;53.218;5.730;2022-09-09T14:19:47;5.57;;;1.73;;
71496;SDS011;59317;53.218;5.730;2022-09-09T14:22:14;7.00;;;1.83;;
71496;SDS011;59317;53.218;5.730;2022-09-09T14:24:40;7.57;;;2.08;;
71496;SDS011;59317;53.218;5.730;2022-09-09T14:27:06;8.75;;;2.10;;
71496;SDS011;59317;53.218;5.730;2022-09-09T14:29:32;5.45;;;1.00;;
71496;SDS011;59317;53.218;5.730;2022-09-09T14:31:58;6.10;;;1.20;;
71496;SDS011;59317;53.218;5.730;2022-09-09T14:34:26;15.50;;;2.10;;
71496;SDS011;59317;53.218;5.730;2022-09-09T14:36:52;5.53;;;1.20;;
71496;SDS011;59317;53.218;5.730;2022-09-09T14:39:18;4.57;;;1.00;;
71496;SDS011;59317;53.218;5.730;2022-09-09T14:41:47;5.47;;;1.00;;
71496;SDS011;59317;53.218;5.730;2022-09-09T14:44:21;4.93;;;1.00;;
71496;SDS011;59317;53.218;5.730;2022-09-09T14:46:47;4.43;;;0.83;;
71496;SDS011;59317;53.218;5.730;2022-09-09T14:49:15;5.18;;;1.08;;
71496;SDS011;59317;53.218;5.730;2022-09-09T14:51:41;7.80;;;1.25;;
71496;SDS011;59317;53.218;5.730;2022-09-09T14:54:07;4.60;;;1.03;;
71496;SDS011;59317;53.218;5.730;2022-09-09T14:56:34;12.27;;;1.70;;
71496;SDS011;59317;53.218;5.730;2022-09-09T14:59:09;7.60;;;1.50;;
71496;SDS011;59317;53.218;5.730;2022-09-09T15:01:35;9.10;;;1.87;;
71496;SDS011;59317;53.218;5.730;2022-09-09T15:04:03;7.60;;;1.63;;
71496;SDS011;59317;53.218;5.730;2022-09-09T15:06:39;5.47;;;1.43;;
71496;SDS011;59317;53.218;5.730;2022-09-09T15:09:07;5.68;;;1.40;;
71496;SDS011;59317;53.218;5.730;2022-09-09T15:11:49;6.38;;;1.38;;
71496;SDS011;59317;53.218;5.730;2022-09-09T15:14:31;5.22;;;1.40;;
71496;SDS011;59317;53.218;5.730;2022-09-09T15:17:17;6.72;;;1.90;;
71496;SDS011;59317;53.218;5.730;2022-09-09T15:19:54;5.77;;;1.97;;
71496;SDS011;59317;53.218;5.730;2022-09-09T15:22:20;8.47;;;2.27;;
71496;SDS011;59317;53.218;5.730;2022-09-09T15:24:52;5.35;;;1.85;;
71496;SDS011;59317;53.218;5.730;2022-09-09T15:27:18;5.63;;;1.80;;
71496;SDS011;59317;53.218;5.730;2022-09-09T15:29:44;4.88;;;1.80;;
71496;SDS011;59317;53.218;5.730;2022-09-09T15:32:10;7.13;;;2.20;;
71496;SDS011;59317;53.218;5.730;2022-09-09T15:34:36;6.53;;;1.95;;
71496;SDS011;59317;53.218;5.730;2022-09-09T15:37:02;8.68;;;2.10;;
71496;SDS011;59317;53.218;5.730;2022-09-09T15:39:31;6.38;;;1.92;;
71496;SDS011;59317;53.218;5.730;2022-09-09T15:41:57;7.82;;;2.70;;
71496;SDS011;59317;53.218;5.730;2022-09-09T15:44:34;6.22;;;2.60;;
71496;SDS011;59317;53.218;5.730;2022-09-09T15:47:07;9.52;;;3.15;;
71496;SDS011;59317;53.218;5.730;2022-09-09T15:49:33;8.03;;;3.10;;
71496;SDS011;59317;53.218;5.730;2022-09-09T15:52:11;8.67;;;3.20;;
71496;SDS011;59317;53.218;5.730;2022-09-09T15:54:40;8.20;;;3.45;;
71496;SDS011;59317;53.218;5.730;2022-09-09T15:57:20;8.73;;;3.03;;
71496;SDS011;59317;53.218;5.730;2022-09-09T15:59:46;8.17;;;3.20;;
71496;SDS011;59317;53.218;5.730;2022-09-09T16:02:18;7.75;;;3.25;;
71496;SDS011;59317;53.218;5.730;2022-09-09T16:04:44;8.95;;;3.45;;
71496;SDS011;59317;53.218;5.730;2022-09-09T16:07:10;9.13;;;3.30;;
71496;SDS011;59317;53.218;5.730;2022-09-09T16:09:36;7.50;;;3.15;;
71496;SDS011;59317;53.218;5.730;2022-09-09T16:12:08;7.95;;;3.47;;
71496;SDS011;59317;53.218;5.730;2022-09-09T16:14:38;7.93;;;3.70;;
71496;SDS011;59317;53.218;5.730;2022-09-09T16:17:04;8.02;;;3.30;;
71496;SDS011;59317;53.218;5.730;2022-09-09T16:19:31;9.52;;;4.65;;
71496;SDS011;59317;53.218;5.730;2022-09-09T16:21:57;8.37;;;3.70;;
71496;SDS011;59317;53.218;5.730;2022-09-09T16:24:24;7.28;;;3.30;;
71496;SDS011;59317;53.218;5.730;2022-09-09T16:26:51;8.50;;;3.50;;
71496;SDS011;59317;53.218;5.730;2022-09-09T16:29:18;7.75;;;3.50;;
71496;SDS011;59317;53.218;5.730;2022-09-09T16:31:45;9.95;;;4.00;;
71496;SDS011;59317;53.218;5.730;2022-09-09T16:34:11;4.07;;;1.05;;
71496;SDS011;59317;53.218;5.730;2022-09-09T16:36:38;3.83;;;1.00;;
71496;SDS011;59317;53.218;5.730;2022-09-09T16:39:10;3.78;;;0.80;;
71496;SDS011;59317;53.218;5.730;2022-09-09T16:41:56;3.90;;;0.90;;
71496;SDS011;59317;53.218;5.730;2022-09-09T16:44:22;2.63;;;0.60;;
71496;SDS011;59317;53.218;5.730;2022-09-09T16:46:48;4.20;;;0.80;;
71496;SDS011;59317;53.218;5.730;2022-09-09T16:49:26;2.10;;;0.50;;
71496;SDS011;59317;53.218;5.730;2022-09-09T16:51:53;4.07;;;0.80;;
71496;SDS011;59317;53.218;5.730;2022-09-09T16:54:19;2.83;;;0.70;;